createdAt,value
2023-01-25T00:01:31.759Z,97.9511
2023-01-25T00:06:33.475Z,82.8817
2023-01-25T00:11:35.200Z,74.12565
2023-01-25T00:16:37.504Z,62.4894
2023-01-25T00:21:39.494Z,52.96165
2023-01-25T00:26:41.406Z,40.77245
2023-01-25T00:31:43.255Z,30.63215
2023-01-25T00:36:45.178Z,18.5896
2023-01-25T00:41:47.140Z,14.9196
2023-01-25T00:46:49.038Z,5.9937
2023-01-25T00:51:50.811Z,3.48555
2023-01-25T00:56:52.812Z,1.16185
2023-01-25T01:01:54.676Z,0.88715
2023-01-25T01:06:56.821Z,0
2023-01-25T01:11:58.689Z,0
2023-01-25T01:17:00.459Z,0
2023-01-25T01:22:02.458Z,0
2023-01-25T01:27:04.420Z,0
2023-01-25T01:32:06.449Z,0
2023-01-25T01:37:08.329Z,0
2023-01-25T01:42:10.018Z,0
2023-01-25T01:47:11.634Z,0
2023-01-25T01:52:13.297Z,0
2023-01-25T01:57:15.001Z,0
2023-01-25T02:02:16.918Z,0
2023-01-25T02:07:18.676Z,0
2023-01-25T02:12:20.357Z,0
2023-01-25T02:17:22.040Z,0
2023-01-25T02:22:23.693Z,0
2023-01-25T02:27:25.347Z,0
2023-01-25T02:32:27.070Z,0
2023-01-25T02:37:28.743Z,0
2023-01-25T02:42:30.361Z,0
2023-01-25T02:47:31.945Z,0
2023-01-25T02:52:33.554Z,0
2023-01-25T02:57:35.234Z,0
2023-01-25T03:02:36.929Z,0
2023-01-25T03:07:38.704Z,0
2023-01-25T03:12:40.301Z,0
2023-01-25T03:17:41.925Z,0
2023-01-25T03:22:43.585Z,0
2023-01-25T03:27:45.206Z,0
2023-01-25T03:32:46.831Z,0
2023-01-25T03:37:48.472Z,0
2023-01-25T03:42:50.164Z,0
2023-01-25T03:47:52.131Z,0
2023-01-25T03:52:53.750Z,0
2023-01-25T03:57:55.371Z,0
2023-01-25T04:02:57.072Z,0
2023-01-25T04:07:58.700Z,0
2023-01-25T04:13:00.897Z,0
2023-01-25T04:18:02.795Z,0
2023-01-25T04:23:04.408Z,0
2023-01-25T04:28:06.090Z,0
2023-01-25T04:33:07.751Z,0
2023-01-25T04:38:09.406Z,0
2023-01-25T04:43:11.709Z,0
2023-01-25T04:48:13.679Z,0
2023-01-25T04:53:15.335Z,0
2023-01-25T04:58:16.999Z,0
2023-01-25T05:03:18.612Z,0
2023-01-25T05:08:20.256Z,0
2023-01-25T05:13:21.905Z,0
2023-01-25T05:18:23.594Z,0
2023-01-25T05:23:25.259Z,0
2023-01-25T05:28:26.909Z,0
2023-01-25T05:33:28.863Z,0
2023-01-25T05:38:30.490Z,0
2023-01-25T05:43:32.356Z,0
2023-01-25T05:48:34.015Z,0
2023-01-25T05:53:35.792Z,0
2023-01-25T05:58:37.554Z,0
2023-01-25T06:03:39.340Z,0
2023-01-25T06:08:40.951Z,0
2023-01-25T06:13:43.610Z,0
2023-01-25T06:18:45.315Z,0
2023-01-25T06:23:47.022Z,0
2023-01-25T06:28:48.845Z,0
2023-01-25T06:33:50.720Z,0
2023-01-25T06:38:52.384Z,0
2023-01-25T06:43:54.142Z,0
2023-01-25T06:48:55.817Z,0
2023-01-25T06:53:57.448Z,0
2023-01-25T06:58:59.409Z,0
2023-01-25T07:04:01.083Z,0
2023-01-25T07:09:02.687Z,0
2023-01-25T07:14:04.345Z,0
2023-01-25T07:19:06.004Z,0
2023-01-25T07:24:07.737Z,0
2023-01-25T07:29:10.532Z,0
2023-01-25T07:34:12.341Z,0
2023-01-25T07:39:13.964Z,0
2023-01-25T07:44:15.919Z,0
2023-01-25T07:49:17.594Z,0
2023-01-25T07:54:19.218Z,0
2023-01-25T07:59:20.836Z,0
2023-01-25T08:04:22.524Z,0
2023-01-25T08:09:24.159Z,0
2023-01-25T08:14:25.809Z,0
2023-01-25T08:19:27.792Z,0
2023-01-25T08:24:29.436Z,0
2023-01-25T08:29:31.119Z,0
2023-01-25T08:34:32.818Z,0
2023-01-25T08:39:34.468Z,0
2023-01-25T08:44:36.147Z,0
2023-01-25T08:49:37.783Z,0
2023-01-25T08:54:39.542Z,0
2023-01-25T08:59:41.247Z,0
2023-01-25T09:04:42.938Z,0
2023-01-25T09:09:45.256Z,0
2023-01-25T09:14:47.012Z,0
2023-01-25T09:19:48.819Z,0
2023-01-25T09:24:50.751Z,0
2023-01-25T09:30:01.510Z,0
2023-01-25T09:35:04.282Z,0
2023-01-25T09:40:05.914Z,0
2023-01-25T09:45:07.860Z,0
2023-01-25T09:50:10.084Z,0
2023-01-25T09:55:12.043Z,0
2023-01-25T10:00:14.166Z,0
2023-01-25T10:05:16.185Z,0
2023-01-25T10:10:17.880Z,0
2023-01-25T10:15:19.516Z,0
2023-01-25T10:20:21.221Z,0
2023-01-25T10:25:22.929Z,0
2023-01-25T10:30:24.618Z,0
2023-01-25T10:35:35.410Z,0
2023-01-25T10:40:38.032Z,0
2023-01-25T10:45:39.744Z,0
2023-01-25T10:50:41.377Z,0
2023-01-25T10:55:42.990Z,0
2023-01-25T11:00:44.845Z,0
2023-01-25T11:05:46.606Z,0
2023-01-25T11:10:48.211Z,0
2023-01-25T11:15:50.016Z,0
2023-01-25T11:20:51.635Z,0
2023-01-25T11:25:53.293Z,0
2023-01-25T11:30:55.138Z,0
2023-01-25T11:35:56.810Z,0
2023-01-25T11:40:58.457Z,0
2023-01-25T11:46:00.178Z,0
2023-01-25T11:51:01.869Z,0
2023-01-25T11:56:03.564Z,0
2023-01-25T12:01:05.318Z,0
2023-01-25T12:06:06.942Z,0
2023-01-25T12:11:08.568Z,0
2023-01-25T12:16:10.205Z,0
2023-01-25T12:21:15.202Z,0
2023-01-25T12:26:19.049Z,0
2023-01-25T12:31:20.817Z,0
2023-01-25T12:36:22.479Z,0
2023-01-25T12:41:24.170Z,0
2023-01-25T12:46:25.827Z,0
2023-01-25T12:51:27.449Z,0
2023-01-25T12:56:29.049Z,0
2023-01-25T13:01:30.728Z,0
2023-01-25T13:06:32.343Z,0
2023-01-25T13:11:33.941Z,0
2023-01-25T13:16:35.671Z,0
2023-01-25T13:21:37.336Z,0
2023-01-25T13:26:38.973Z,0
2023-01-25T13:31:52.088Z,0
2023-01-25T13:36:54.419Z,0
2023-01-25T13:41:56.722Z,0
2023-01-25T13:46:58.351Z,0
2023-01-25T13:51:59.985Z,0
2023-01-25T13:57:01.709Z,0
2023-01-25T14:02:03.471Z,0
2023-01-25T14:07:05.138Z,0
2023-01-25T14:12:06.847Z,0
2023-01-25T14:17:08.555Z,0
2023-01-25T14:22:10.298Z,0
2023-01-25T14:27:11.984Z,0
2023-01-25T14:32:13.651Z,0
2023-01-25T14:37:15.438Z,0
2023-01-25T14:42:17.004Z,0
2023-01-25T14:47:18.589Z,0
2023-01-25T14:52:20.295Z,0
2023-01-25T14:57:21.952Z,0
2023-01-25T15:02:23.571Z,0
2023-01-25T15:07:25.233Z,0
2023-01-25T15:12:31.154Z,2.32725
2023-01-25T15:17:37.439Z,3.48555
2023-01-25T15:22:39.155Z,4.83185
2023-01-25T15:27:40.757Z,6.3626
2023-01-25T15:32:42.453Z,18.2207
2023-01-25T15:37:44.185Z,27.8844
2023-01-25T15:42:45.791Z,39.8718
2023-01-25T15:47:47.430Z,51.4903
2023-01-25T15:52:49.069Z,53.86915
2023-01-25T15:57:50.680Z,73.2517
2023-01-25T16:02:52.483Z,77.71465
2023-01-25T16:07:54.133Z,86.27165
2023-01-25T16:12:55.864Z,99.60535
2023-01-25T16:17:57.547Z,116.185
2023-01-25T16:22:59.324Z,153.95555
2023-01-25T16:28:01.051Z,156.99805
2023-01-25T16:33:05.270Z,193.32915
2023-01-25T16:38:07.092Z,219.38805
2023-01-25T16:43:08.801Z,254.5763
2023-01-25T16:48:10.501Z,263.42805
2023-01-25T16:53:12.156Z,286.92365
2023-01-25T16:58:13.821Z,323.49435
2023-01-25T17:03:15.554Z,371.83185
2023-01-25T17:08:17.294Z,421.1829
2023-01-25T17:13:19.021Z,400.6195
2023-01-25T17:18:20.687Z,463.93175
2023-01-25T17:23:22.513Z,424.0961
2023-01-25T17:28:24.154Z,445.5076
2023-01-25T17:33:25.832Z,454.0646
2023-01-25T17:38:27.537Z,517.61645
2023-01-25T17:43:29.189Z,527.0957
2023-01-25T17:48:31.070Z,503.41565
2023-01-25T17:53:32.856Z,521.39675
2023-01-25T17:58:34.634Z,564.6438
2023-01-25T18:03:36.313Z,608.13045
2023-01-25T18:08:38.164Z,679.20675
2023-01-25T18:13:40.251Z,756.53535
2023-01-25T18:18:41.900Z,593.91065
2023-01-25T18:23:43.800Z,692.89035
2023-01-25T18:28:45.705Z,735.4186
2023-01-25T18:33:47.316Z,767.9504
2023-01-25T18:38:48.969Z,853.78085
2023-01-25T18:43:50.620Z,771.93415
2023-01-25T18:48:52.603Z,809.1875
2023-01-25T18:53:54.257Z,714.91035
2023-01-25T18:58:56.163Z,684.4988
2023-01-25T19:03:57.995Z,823.4796
2023-01-25T19:08:59.838Z,885.33525
2023-01-25T19:14:01.776Z,902.08035
2023-01-25T19:19:03.476Z,887.89855
2023-01-25T19:24:07.280Z,872.9048
2023-01-25T19:29:08.938Z,858.0955
2023-01-25T19:34:10.546Z,905.01255
2023-01-25T19:39:12.160Z,949.18185
2023-01-25T19:44:13.932Z,967.3474
2023-01-25T19:49:15.705Z,897.7277
2023-01-25T19:54:17.344Z,924.94845
2023-01-25T19:59:18.956Z,983.0048
2023-01-25T20:04:20.574Z,1071.8416
2023-01-25T20:09:22.279Z,941.84185
2023-01-25T20:14:24.101Z,786.3917
2023-01-25T20:19:25.781Z,1011.5357
2023-01-25T20:24:27.621Z,913.1645
2023-01-25T20:29:29.419Z,911.26485
2023-01-25T20:34:31.037Z,929.87345
2023-01-25T20:39:32.715Z,925.22605
2023-01-25T20:44:34.370Z,978.45055
2023-01-25T20:49:36.113Z,957.832
2023-01-25T20:54:37.830Z,954.162
2023-01-25T20:59:39.499Z,970.00385
2023-01-25T21:04:41.152Z,969.2109
2023-01-25T21:09:43.058Z,951.4694
2023-01-25T21:14:44.783Z,957.27865
2023-01-25T21:19:46.444Z,998.9398
2023-01-25T21:24:48.189Z,908.09305
2023-01-25T21:29:49.833Z,898.0053
2023-01-25T21:34:51.606Z,928.9702
2023-01-25T21:39:53.251Z,927.3843
2023-01-25T21:44:54.897Z,1055.11735
2023-01-25T21:49:56.655Z,1107.6059
2023-01-25T21:54:58.297Z,968.3095
2023-01-25T21:59:59.956Z,906.7486
2023-01-25T22:05:01.661Z,1015.3197
2023-01-25T22:10:03.502Z,1036.347
2023-01-25T22:15:05.128Z,926.83465
2023-01-25T22:20:06.787Z,833.95895
2023-01-25T22:25:08.434Z,784.6802
2023-01-25T22:30:10.582Z,715.48455
2023-01-25T22:35:12.376Z,735.49645
2023-01-25T22:40:14.112Z,712.0027
2023-01-25T22:45:15.746Z,495.20855
2023-01-25T22:50:17.592Z,510.35245
2023-01-25T22:55:19.250Z,486.52225
2023-01-25T23:00:20.896Z,471.69395
2023-01-25T23:05:22.566Z,456.14685
2023-01-25T23:10:24.171Z,418.34015
2023-01-25T23:15:25.832Z,438.18475
2023-01-25T23:20:27.467Z,377.8427
2023-01-25T23:25:29.173Z,356.61565
2023-01-25T23:30:30.800Z,309.8089
2023-01-25T23:35:32.394Z,272.1315
2023-01-25T23:40:34.079Z,249.92705
2023-01-25T23:45:35.761Z,211.9359
2023-01-25T23:50:37.537Z,180.80555
2023-01-25T23:55:39.238Z,152.55945
